Furlow, Arkansas
Current Conditions -  °F | °C
As of 4:52 AM on Sunday 26 Oct 2014 (Local Time) from KLRF Reporting Station
Haze Haze  
Wind Chill: 57°   Ceiling: Unl
Heat Index: 57°   Visibility: 1.2mi
Dew Point: 57°   Wind: 0mph
Humidity: 100%   Direction: NA
Pressure: 29.99"   Gusts: NA
Location:  34.7557°N, 91.9476°W
Report Text: KLRF 260952Z AUTO 00000KT 1 1/4SM BR SCT001 14/14 A2999 RMK AO2 VIS 3/4V1 1/2 VIS M1/4 RWY07
Loading
Personal Weather Stations






























Interactive Weather Map
Tropical Storm Tracking
New forecast layout! Learn more

10-Day Weather Forecast

Advertisements
Track Severe Weather on mobile